Liberty of The Seas — C6VQ8 — position and weather

sailwx.info

Track history (hours):
 
Tides and Currents Weather Stations Pressure Air Temp Water Temp Dewpoint Dewpoint Depression Visibility Wind Speed Wind Dir Waves Ship Positions

Liberty of The Seas

Last reported at 2016-Jan-12 23:33 UTC. Time now 2016-Feb-09 10:05 UTC.
Position N 26°08' W 079°21'.
Warning: this ship's position is 27 days out of date.

Type: Passenger vessel. MMSI: 309436000.

Date/timePositionNaut miles runAvg speedWind from/ knotsBaromVisibWave heightAir tempDewpointWater temp
2016-Jan-12 23:33N 26°08' W 079°21'2222.6
2016-Jan-12 22:33N 25°50' W 079°34'2323.5
2016-Jan-12 21:34N 25°28' W 079°44'83219.2
2016-Jan-11 02:08N 29°21' W 094°44'4 0.3
2016-Jan-10 12:10N 29°19' W 094°48'1 2.5
2016-Jan-10 11:34N 29°20' W 094°47'67918.2
2016-Jan-08 22:19N 20°30' W 086°59'1 1.2
2016-Jan-08 21:33N 20°29' W 086°59'0 0.0
2016-Jan-08 20:33N 20°29' W 086°59'0 0.0
2016-Jan-08 19:33N 20°29' W 086°59'0 0.0
2016-Jan-08 18:33N 20°29' W 086°59'0 0.0
2016-Jan-08 17:33N 20°29' W 086°59'0 0.0
2016-Jan-08 16:27N 20°29' W 086°59'0 0.0
2016-Jan-08 15:33N 20°29' W 086°59'0 0.0
2016-Jan-08 14:33N 20°29' W 086°59'0 0.0
2016-Jan-08 13:33N 20°29' W 086°59'0 0.0
2016-Jan-08 12:30N 20°29' W 086°59'0 0.3
2016-Jan-08 11:33N 20°29' W 086°59'  
2016-Jan-03 23:10N 29°21' W 094°45'3 0.3
2016-Jan-03 12:10N 29°19' W 094°48'1 2.4
2016-Jan-03 11:33N 29°20' W 094°47'5513.6
2016-Jan-03 07:28N 28°51' W 093°52'1717.4
2016-Jan-03 06:30N 28°41' W 093°37'  
Track history (hours):
 
Tides and Currents Weather Stations Pressure Air Temp Water Temp Dewpoint Dewpoint Depression Visibility Wind Speed Wind Dir Waves Ship Positions

Liberty of The Seas

Last reported at 2016-Jan-12 23:33 UTC. Time now 2016-Feb-09 10:05 UTC.
Position N 26°08' W 079°21'.
Warning: this ship's position is 27 days out of date.

Type: Passenger vessel. MMSI: 309436000.

Date/timePositionNaut miles runAvg speedWind from/ knotsBaromVisibWave heightAir tempDewpointWater temp
2016-Jan-12 23:33N 26°08' W 079°21'2222.6
2016-Jan-12 22:33N 25°50' W 079°34'2323.5
2016-Jan-12 21:34N 25°28' W 079°44'83219.2
2016-Jan-11 02:08N 29°21' W 094°44'4 0.3
2016-Jan-10 12:10N 29°19' W 094°48'1 2.5
2016-Jan-10 11:34N 29°20' W 094°47'67918.2
2016-Jan-08 22:19N 20°30' W 086°59'1 1.2
2016-Jan-08 21:33N 20°29' W 086°59'0 0.0
2016-Jan-08 20:33N 20°29' W 086°59'0 0.0
2016-Jan-08 19:33N 20°29' W 086°59'0 0.0
2016-Jan-08 18:33N 20°29' W 086°59'0 0.0
2016-Jan-08 17:33N 20°29' W 086°59'0 0.0
2016-Jan-08 16:27N 20°29' W 086°59'0 0.0
2016-Jan-08 15:33N 20°29' W 086°59'0 0.0
2016-Jan-08 14:33N 20°29' W 086°59'0 0.0
2016-Jan-08 13:33N 20°29' W 086°59'0 0.0
2016-Jan-08 12:30N 20°29' W 086°59'0 0.3
2016-Jan-08 11:33N 20°29' W 086°59'  
2016-Jan-03 23:10N 29°21' W 094°45'3 0.3
2016-Jan-03 12:10N 29°19' W 094°48'1 2.4
2016-Jan-03 11:33N 29°20' W 094°47'5513.6
2016-Jan-03 07:28N 28°51' W 093°52'1717.4
2016-Jan-03 06:30N 28°41' W 093°37'  

Dump ship's entire track history